Главная страница
METAR-TAF:

METAR-TAF

Аэропорты :

Салгаду Филью

Порту-Алегри, Риу-Гранди-ду-Сул, Бразилия

широта: 30-00S, долгота: 051-11W, высота над уровнем моря: 3 м

Текущие метеонаблюдения

Эта сводка был подготовлена 25 минут назад, в 03:00 UTC
Ветер 2 Узел от юго-юго-восточный
Температура 16°C
Влажность 100%
Давление 1014 hPa
Видимость: 7000 м

METAR: SBPA 190300Z 16002KT 7000 NSC 16/16 Q1014

Время: 00:25 (03:25 UTC)

Прогноз

Эта сводка был подготовлена 5 часа и 25 минут назад, в 22:00 UTC
Прогноз действительный с 19-го 00 UTC до 19-го 24 UTC
Ветер 8 Узел от восточный
Видимость 10 км и более
Нет облачности ниже 1500 м, и нет кучево-дождевой облачности
Вероятность 30%
С 19-го 07 UTC до 19-го 10 UTC
Видимость: 2000 м
клочья тумана, дымка
изменения
С 19-го 12 UTC до 19-го 14 UTC
Ветер 10 Узел от северо-северо-восточный

TAF: SBPA 182200Z 1900/1924 10008KT CAVOK TN15/1908Z TX26/1918Z PROB30 1907/1910 2000 BCFG BR NSC BECMG 1912/1914 03010KT RMK PER

Метеонаблюдения и прогнозы для более 4000 аэропортов (сводки METAR и TAF).

Имеющиеся станции представлены на карте желтыми и красными точками.

Чтобы увидеть название станции, наведите на нее мышь.

Затем щелкните, чтобы увидеть метеонаблюдения и метеопрогнозы.

Управление картой: чтобы увеличить масштаб, щелкните зеленые кнопки с черным крестиком; чтобы уменьшить масштаб, щелкните зеленую кнопку с тире; для просмотра соседних карт щелкайте зеленые стрелки.


METAR-TAF: